sensor_id;sensor_type;location;lat;lon;timestamp;P1;durP1;ratioP1;P2;durP2;ratioP2
69188;SDS011;56302;52.322;5.926;2022-07-22T00:02:24;8.40;;;1.73;;
69188;SDS011;56302;52.322;5.926;2022-07-22T00:04:49;6.80;;;1.55;;
69188;SDS011;56302;52.322;5.926;2022-07-22T00:07:15;4.63;;;1.60;;
69188;SDS011;56302;52.322;5.926;2022-07-22T00:09:40;9.40;;;1.80;;
69188;SDS011;56302;52.322;5.926;2022-07-22T00:12:06;8.03;;;1.57;;
69188;SDS011;56302;52.322;5.926;2022-07-22T00:14:32;8.25;;;1.60;;
69188;SDS011;56302;52.322;5.926;2022-07-22T00:16:58;7.03;;;1.50;;
69188;SDS011;56302;52.322;5.926;2022-07-22T00:19:24;5.78;;;1.40;;
69188;SDS011;56302;52.322;5.926;2022-07-22T00:21:50;4.37;;;1.53;;
69188;SDS011;56302;52.322;5.926;2022-07-22T00:24:16;6.35;;;1.50;;
69188;SDS011;56302;52.322;5.926;2022-07-22T00:26:42;8.70;;;1.48;;
69188;SDS011;56302;52.322;5.926;2022-07-22T00:29:08;7.20;;;2.00;;
69188;SDS011;56302;52.322;5.926;2022-07-22T00:31:33;7.32;;;1.48;;
69188;SDS011;56302;52.322;5.926;2022-07-22T00:34:00;6.97;;;1.75;;
69188;SDS011;56302;52.322;5.926;2022-07-22T00:36:26;15.47;;;1.77;;
69188;SDS011;56302;52.322;5.926;2022-07-22T00:38:52;10.75;;;1.52;;
69188;SDS011;56302;52.322;5.926;2022-07-22T00:41:30;10.45;;;1.73;;
69188;SDS011;56302;52.322;5.926;2022-07-22T00:44:00;6.47;;;1.47;;
69188;SDS011;56302;52.322;5.926;2022-07-22T00:46:28;9.23;;;1.80;;
69188;SDS011;56302;52.322;5.926;2022-07-22T00:48:56;9.45;;;1.70;;
69188;SDS011;56302;52.322;5.926;2022-07-22T00:51:22;8.13;;;2.15;;
69188;SDS011;56302;52.322;5.926;2022-07-22T00:53:49;5.57;;;1.63;;
69188;SDS011;56302;52.322;5.926;2022-07-22T00:56:16;8.27;;;1.90;;
69188;SDS011;56302;52.322;5.926;2022-07-22T00:58:43;6.97;;;1.48;;
69188;SDS011;56302;52.322;5.926;2022-07-22T01:01:09;7.07;;;1.65;;
69188;SDS011;56302;52.322;5.926;2022-07-22T01:03:35;7.27;;;2.03;;
69188;SDS011;56302;52.322;5.926;2022-07-22T01:06:01;4.22;;;1.50;;
69188;SDS011;56302;52.322;5.926;2022-07-22T01:08:26;8.17;;;1.70;;
69188;SDS011;56302;52.322;5.926;2022-07-22T01:10:52;5.30;;;1.50;;
69188;SDS011;56302;52.322;5.926;2022-07-22T01:13:17;8.37;;;1.80;;
69188;SDS011;56302;52.322;5.926;2022-07-22T01:15:43;9.53;;;1.97;;
69188;SDS011;56302;52.322;5.926;2022-07-22T01:18:08;8.35;;;1.95;;
69188;SDS011;56302;52.322;5.926;2022-07-22T01:20:34;8.40;;;1.77;;
69188;SDS011;56302;52.322;5.926;2022-07-22T01:23:00;7.47;;;1.83;;
69188;SDS011;56302;52.322;5.926;2022-07-22T01:25:26;4.87;;;2.00;;
69188;SDS011;56302;52.322;5.926;2022-07-22T01:27:51;9.13;;;2.10;;
69188;SDS011;56302;52.322;5.926;2022-07-22T01:30:18;8.90;;;2.03;;
69188;SDS011;56302;52.322;5.926;2022-07-22T01:32:43;6.35;;;1.63;;
69188;SDS011;56302;52.322;5.926;2022-07-22T01:35:09;6.80;;;2.00;;
69188;SDS011;56302;52.322;5.926;2022-07-22T01:37:34;5.27;;;1.33;;
69188;SDS011;56302;52.322;5.926;2022-07-22T01:40:00;7.28;;;1.80;;
69188;SDS011;56302;52.322;5.926;2022-07-22T01:42:26;6.10;;;1.67;;
69188;SDS011;56302;52.322;5.926;2022-07-22T01:44:52;5.90;;;1.60;;
69188;SDS011;56302;52.322;5.926;2022-07-22T01:47:18;8.87;;;1.90;;
69188;SDS011;56302;52.322;5.926;2022-07-22T01:49:44;8.05;;;1.70;;
69188;SDS011;56302;52.322;5.926;2022-07-22T01:52:09;6.70;;;2.10;;
69188;SDS011;56302;52.322;5.926;2022-07-22T01:54:35;5.80;;;1.90;;
69188;SDS011;56302;52.322;5.926;2022-07-22T01:57:01;7.07;;;1.67;;
69188;SDS011;56302;52.322;5.926;2022-07-22T01:59:27;7.57;;;1.80;;
69188;SDS011;56302;52.322;5.926;2022-07-22T02:01:53;6.77;;;1.90;;
69188;SDS011;56302;52.322;5.926;2022-07-22T02:04:19;5.95;;;1.77;;
69188;SDS011;56302;52.322;5.926;2022-07-22T02:06:44;6.93;;;2.07;;
69188;SDS011;56302;52.322;5.926;2022-07-22T02:09:10;6.78;;;1.98;;
69188;SDS011;56302;52.322;5.926;2022-07-22T02:11:35;5.23;;;1.60;;
69188;SDS011;56302;52.322;5.926;2022-07-22T02:14:01;8.07;;;1.60;;
69188;SDS011;56302;52.322;5.926;2022-07-22T02:16:27;7.85;;;1.92;;
69188;SDS011;56302;52.322;5.926;2022-07-22T02:18:52;6.40;;;2.00;;
69188;SDS011;56302;52.322;5.926;2022-07-22T02:21:18;11.50;;;2.35;;
69188;SDS011;56302;52.322;5.926;2022-07-22T02:23:44;8.23;;;2.40;;
69188;SDS011;56302;52.322;5.926;2022-07-22T02:26:09;9.47;;;1.87;;
69188;SDS011;56302;52.322;5.926;2022-07-22T02:28:35;8.23;;;1.97;;
69188;SDS011;56302;52.322;5.926;2022-07-22T02:31:01;7.85;;;1.90;;
69188;SDS011;56302;52.322;5.926;2022-07-22T02:33:27;7.07;;;2.00;;
69188;SDS011;56302;52.322;5.926;2022-07-22T02:35:54;7.43;;;1.80;;
69188;SDS011;56302;52.322;5.926;2022-07-22T02:38:20;7.60;;;2.17;;
69188;SDS011;56302;52.322;5.926;2022-07-22T02:40:45;8.53;;;2.30;;
69188;SDS011;56302;52.322;5.926;2022-07-22T02:43:11;5.53;;;1.92;;
69188;SDS011;56302;52.322;5.926;2022-07-22T02:45:36;7.83;;;2.43;;
69188;SDS011;56302;52.322;5.926;2022-07-22T02:48:02;5.60;;;2.13;;
69188;SDS011;56302;52.322;5.926;2022-07-22T02:50:28;9.35;;;2.13;;
69188;SDS011;56302;52.322;5.926;2022-07-22T02:52:53;7.90;;;2.00;;
69188;SDS011;56302;52.322;5.926;2022-07-22T02:55:19;8.27;;;2.50;;
69188;SDS011;56302;52.322;5.926;2022-07-22T02:57:44;7.07;;;2.22;;
69188;SDS011;56302;52.322;5.926;2022-07-22T03:00:10;5.53;;;2.07;;
69188;SDS011;56302;52.322;5.926;2022-07-22T03:02:37;7.38;;;1.92;;
69188;SDS011;56302;52.322;5.926;2022-07-22T03:05:04;8.90;;;2.08;;
69188;SDS011;56302;52.322;5.926;2022-07-22T03:07:30;7.60;;;1.95;;
69188;SDS011;56302;52.322;5.926;2022-07-22T03:09:56;8.60;;;2.20;;
69188;SDS011;56302;52.322;5.926;2022-07-22T03:12:22;6.22;;;2.13;;
69188;SDS011;56302;52.322;5.926;2022-07-22T03:14:48;4.73;;;1.97;;
69188;SDS011;56302;52.322;5.926;2022-07-22T03:17:14;8.90;;;2.17;;
69188;SDS011;56302;52.322;5.926;2022-07-22T03:19:40;8.73;;;2.23;;
69188;SDS011;56302;52.322;5.926;2022-07-22T03:22:05;9.07;;;2.13;;
69188;SDS011;56302;52.322;5.926;2022-07-22T03:24:31;8.77;;;2.30;;
69188;SDS011;56302;52.322;5.926;2022-07-22T03:26:56;6.75;;;2.00;;
69188;SDS011;56302;52.322;5.926;2022-07-22T03:29:22;7.90;;;2.17;;
69188;SDS011;56302;52.322;5.926;2022-07-22T03:31:47;7.80;;;2.10;;
69188;SDS011;56302;52.322;5.926;2022-07-22T03:34:13;5.03;;;1.98;;
69188;SDS011;56302;52.322;5.926;2022-07-22T03:36:38;6.07;;;1.90;;
69188;SDS011;56302;52.322;5.926;2022-07-22T03:39:04;6.83;;;2.10;;
69188;SDS011;56302;52.322;5.926;2022-07-22T03:41:30;6.32;;;2.10;;
69188;SDS011;56302;52.322;5.926;2022-07-22T03:43:55;7.57;;;2.20;;
69188;SDS011;56302;52.322;5.926;2022-07-22T03:46:21;7.13;;;2.05;;
69188;SDS011;56302;52.322;5.926;2022-07-22T03:48:46;9.27;;;2.47;;
69188;SDS011;56302;52.322;5.926;2022-07-22T03:51:12;7.45;;;2.20;;
69188;SDS011;56302;52.322;5.926;2022-07-22T03:53:38;6.80;;;2.37;;
69188;SDS011;56302;52.322;5.926;2022-07-22T03:56:04;8.30;;;2.50;;
69188;SDS011;56302;52.322;5.926;2022-07-22T03:58:30;9.27;;;1.97;;
69188;SDS011;56302;52.322;5.926;2022-07-22T04:00:55;7.43;;;2.47;;
69188;SDS011;56302;52.322;5.926;2022-07-22T04:03:21;10.13;;;2.80;;
69188;SDS011;56302;52.322;5.926;2022-07-22T04:05:46;6.90;;;2.30;;
69188;SDS011;56302;52.322;5.926;2022-07-22T04:08:12;7.50;;;2.15;;
69188;SDS011;56302;52.322;5.926;2022-07-22T04:10:38;9.37;;;2.57;;
69188;SDS011;56302;52.322;5.926;2022-07-22T04:13:04;8.70;;;2.20;;
69188;SDS011;56302;52.322;5.926;2022-07-22T04:15:30;10.83;;;2.60;;
69188;SDS011;56302;52.322;5.926;2022-07-22T04:17:55;7.10;;;2.20;;
69188;SDS011;56302;52.322;5.926;2022-07-22T04:20:21;9.17;;;2.57;;
69188;SDS011;56302;52.322;5.926;2022-07-22T04:22:47;7.97;;;2.30;;
69188;SDS011;56302;52.322;5.926;2022-07-22T04:25:12;7.53;;;2.30;;
69188;SDS011;56302;52.322;5.926;2022-07-22T04:27:39;10.15;;;2.50;;
69188;SDS011;56302;52.322;5.926;2022-07-22T04:30:05;7.72;;;2.50;;
69188;SDS011;56302;52.322;5.926;2022-07-22T04:32:31;10.87;;;2.53;;
69188;SDS011;56302;52.322;5.926;2022-07-22T04:34:57;10.00;;;2.72;;
69188;SDS011;56302;52.322;5.926;2022-07-22T04:37:22;6.97;;;2.60;;
69188;SDS011;56302;52.322;5.926;2022-07-22T04:39:48;8.93;;;2.97;;
69188;SDS011;56302;52.322;5.926;2022-07-22T04:42:13;5.97;;;1.90;;
69188;SDS011;56302;52.322;5.926;2022-07-22T04:44:39;9.93;;;2.30;;
69188;SDS011;56302;52.322;5.926;2022-07-22T04:47:04;7.70;;;2.47;;
69188;SDS011;56302;52.322;5.926;2022-07-22T04:49:30;10.85;;;2.60;;
69188;SDS011;56302;52.322;5.926;2022-07-22T04:51:55;7.97;;;2.20;;
69188;SDS011;56302;52.322;5.926;2022-07-22T04:54:21;7.30;;;2.23;;
69188;SDS011;56302;52.322;5.926;2022-07-22T04:56:46;8.63;;;2.15;;
69188;SDS011;56302;52.322;5.926;2022-07-22T04:59:12;6.83;;;2.00;;
69188;SDS011;56302;52.322;5.926;2022-07-22T05:01:37;7.07;;;2.13;;
69188;SDS011;56302;52.322;5.926;2022-07-22T05:04:03;10.70;;;2.40;;
69188;SDS011;56302;52.322;5.926;2022-07-22T05:06:29;5.30;;;2.20;;
69188;SDS011;56302;52.322;5.926;2022-07-22T05:08:55;8.35;;;2.70;;
69188;SDS011;56302;52.322;5.926;2022-07-22T05:11:20;6.67;;;2.30;;
69188;SDS011;56302;52.322;5.926;2022-07-22T05:13:46;7.07;;;2.57;;
69188;SDS011;56302;52.322;5.926;2022-07-22T05:16:11;11.00;;;2.20;;
69188;SDS011;56302;52.322;5.926;2022-07-22T05:18:37;9.10;;;3.00;;
69188;SDS011;56302;52.322;5.926;2022-07-22T05:21:04;10.73;;;2.67;;
69188;SDS011;56302;52.322;5.926;2022-07-22T05:23:30;6.75;;;2.78;;
69188;SDS011;56302;52.322;5.926;2022-07-22T05:25:55;9.40;;;2.65;;
69188;SDS011;56302;52.322;5.926;2022-07-22T05:28:21;5.07;;;2.50;;
69188;SDS011;56302;52.322;5.926;2022-07-22T05:30:47;8.07;;;2.13;;
69188;SDS011;56302;52.322;5.926;2022-07-22T05:33:12;9.30;;;1.97;;
69188;SDS011;56302;52.322;5.926;2022-07-22T05:35:38;10.57;;;2.30;;
69188;SDS011;56302;52.322;5.926;2022-07-22T05:38:03;9.60;;;2.35;;
69188;SDS011;56302;52.322;5.926;2022-07-22T05:40:30;7.03;;;2.42;;
69188;SDS011;56302;52.322;5.926;2022-07-22T05:42:57;4.60;;;1.80;;
69188;SDS011;56302;52.322;5.926;2022-07-22T05:45:22;8.27;;;2.50;;
69188;SDS011;56302;52.322;5.926;2022-07-22T05:47:48;6.10;;;2.00;;
69188;SDS011;56302;52.322;5.926;2022-07-22T05:50:13;12.90;;;2.53;;
69188;SDS011;56302;52.322;5.926;2022-07-22T05:52:39;5.53;;;1.97;;
69188;SDS011;56302;52.322;5.926;2022-07-22T05:55:05;7.73;;;1.97;;
69188;SDS011;56302;52.322;5.926;2022-07-22T05:57:32;10.00;;;2.67;;
69188;SDS011;56302;52.322;5.926;2022-07-22T05:59:57;6.40;;;2.72;;
69188;SDS011;56302;52.322;5.926;2022-07-22T06:02:23;8.15;;;2.53;;
69188;SDS011;56302;52.322;5.926;2022-07-22T06:04:49;5.03;;;1.80;;
69188;SDS011;56302;52.322;5.926;2022-07-22T06:07:14;12.20;;;2.00;;
69188;SDS011;56302;52.322;5.926;2022-07-22T06:09:40;11.33;;;2.87;;
69188;SDS011;56302;52.322;5.926;2022-07-22T06:12:05;8.63;;;2.83;;
69188;SDS011;56302;52.322;5.926;2022-07-22T06:14:31;8.00;;;2.30;;
69188;SDS011;56302;52.322;5.926;2022-07-22T06:16:57;13.40;;;2.33;;
69188;SDS011;56302;52.322;5.926;2022-07-22T06:19:22;7.20;;;2.63;;
69188;SDS011;56302;52.322;5.926;2022-07-22T06:21:49;8.48;;;2.63;;
69188;SDS011;56302;52.322;5.926;2022-07-22T06:24:15;8.13;;;1.83;;
69188;SDS011;56302;52.322;5.926;2022-07-22T06:26:40;6.85;;;2.03;;
69188;SDS011;56302;52.322;5.926;2022-07-22T06:29:06;6.37;;;2.33;;
69188;SDS011;56302;52.322;5.926;2022-07-22T06:31:32;4.68;;;1.80;;
69188;SDS011;56302;52.322;5.926;2022-07-22T06:33:57;9.20;;;1.97;;
69188;SDS011;56302;52.322;5.926;2022-07-22T06:36:23;6.05;;;1.80;;
69188;SDS011;56302;52.322;5.926;2022-07-22T06:38:48;8.20;;;1.97;;
69188;SDS011;56302;52.322;5.926;2022-07-22T06:41:14;8.33;;;2.40;;
69188;SDS011;56302;52.322;5.926;2022-07-22T06:43:43;7.15;;;2.40;;
69188;SDS011;56302;52.322;5.926;2022-07-22T06:46:09;6.33;;;2.00;;
69188;SDS011;56302;52.322;5.926;2022-07-22T06:48:34;7.10;;;2.13;;
69188;SDS011;56302;52.322;5.926;2022-07-22T06:51:00;6.90;;;2.20;;
69188;SDS011;56302;52.322;5.926;2022-07-22T06:53:25;11.03;;;2.60;;
69188;SDS011;56302;52.322;5.926;2022-07-22T06:55:51;7.17;;;2.43;;
69188;SDS011;56302;52.322;5.926;2022-07-22T06:58:16;8.30;;;2.13;;
69188;SDS011;56302;52.322;5.926;2022-07-22T07:00:42;10.00;;;2.67;;
69188;SDS011;56302;52.322;5.926;2022-07-22T07:03:07;10.88;;;2.42;;
69188;SDS011;56302;52.322;5.926;2022-07-22T07:05:33;7.70;;;2.30;;
69188;SDS011;56302;52.322;5.926;2022-07-22T07:07:58;6.97;;;2.03;;
69188;SDS011;56302;52.322;5.926;2022-07-22T07:10:24;6.10;;;1.77;;
69188;SDS011;56302;52.322;5.926;2022-07-22T07:12:49;7.80;;;1.85;;
69188;SDS011;56302;52.322;5.926;2022-07-22T07:15:19;6.18;;;1.73;;
69188;SDS011;56302;52.322;5.926;2022-07-22T07:17:45;9.43;;;1.80;;
69188;SDS011;56302;52.322;5.926;2022-07-22T07:20:10;4.67;;;1.60;;
69188;SDS011;56302;52.322;5.926;2022-07-22T07:22:36;7.97;;;1.77;;
69188;SDS011;56302;52.322;5.926;2022-07-22T07:25:03;8.27;;;2.03;;
69188;SDS011;56302;52.322;5.926;2022-07-22T07:27:29;7.82;;;2.00;;
69188;SDS011;56302;52.322;5.926;2022-07-22T07:29:55;8.23;;;2.00;;
69188;SDS011;56302;52.322;5.926;2022-07-22T07:32:21;7.38;;;1.90;;
69188;SDS011;56302;52.322;5.926;2022-07-22T07:34:46;10.50;;;1.67;;
69188;SDS011;56302;52.322;5.926;2022-07-22T07:37:12;7.05;;;1.80;;
69188;SDS011;56302;52.322;5.926;2022-07-22T07:39:37;6.73;;;1.50;;
69188;SDS011;56302;52.322;5.926;2022-07-22T07:42:03;7.67;;;1.73;;
69188;SDS011;56302;52.322;5.926;2022-07-22T07:44:29;7.60;;;2.13;;
69188;SDS011;56302;52.322;5.926;2022-07-22T07:46:54;6.20;;;1.87;;
69188;SDS011;56302;52.322;5.926;2022-07-22T07:49:20;8.68;;;2.08;;
69188;SDS011;56302;52.322;5.926;2022-07-22T07:51:45;6.27;;;1.83;;
69188;SDS011;56302;52.322;5.926;2022-07-22T07:54:11;7.80;;;1.57;;
69188;SDS011;56302;52.322;5.926;2022-07-22T07:56:37;6.10;;;1.80;;
69188;SDS011;56302;52.322;5.926;2022-07-22T07:59:02;5.53;;;1.73;;
69188;SDS011;56302;52.322;5.926;2022-07-22T08:01:28;6.15;;;1.65;;
69188;SDS011;56302;52.322;5.926;2022-07-22T08:03:54;8.07;;;1.70;;
69188;SDS011;56302;52.322;5.926;2022-07-22T08:06:19;8.00;;;1.90;;
69188;SDS011;56302;52.322;5.926;2022-07-22T08:08:45;8.13;;;1.70;;
69188;SDS011;56302;52.322;5.926;2022-07-22T08:11:10;4.80;;;1.60;;
69188;SDS011;56302;52.322;5.926;2022-07-22T08:13:36;6.78;;;1.73;;
69188;SDS011;56302;52.322;5.926;2022-07-22T08:16:02;6.00;;;1.40;;
69188;SDS011;56302;52.322;5.926;2022-07-22T08:18:28;7.10;;;2.10;;
69188;SDS011;56302;52.322;5.926;2022-07-22T08:20:54;5.68;;;2.00;;
69188;SDS011;56302;52.322;5.926;2022-07-22T08:23:20;9.27;;;2.07;;
69188;SDS011;56302;52.322;5.926;2022-07-22T08:25:45;6.93;;;1.60;;
69188;SDS011;56302;52.322;5.926;2022-07-22T08:28:11;7.13;;;1.87;;
69188;SDS011;56302;52.322;5.926;2022-07-22T08:30:37;6.83;;;1.50;;
69188;SDS011;56302;52.322;5.926;2022-07-22T08:33:04;4.63;;;1.60;;
69188;SDS011;56302;52.322;5.926;2022-07-22T08:35:29;4.88;;;1.65;;
69188;SDS011;56302;52.322;5.926;2022-07-22T08:37:55;5.90;;;1.37;;
69188;SDS011;56302;52.322;5.926;2022-07-22T08:40:20;9.77;;;1.67;;
69188;SDS011;56302;52.322;5.926;2022-07-22T08:42:46;9.15;;;1.77;;
69188;SDS011;56302;52.322;5.926;2022-07-22T08:45:14;9.45;;;2.20;;
69188;SDS011;56302;52.322;5.926;2022-07-22T08:47:40;5.70;;;1.70;;
69188;SDS011;56302;52.322;5.926;2022-07-22T08:50:09;5.10;;;1.70;;
69188;SDS011;56302;52.322;5.926;2022-07-22T08:52:35;9.57;;;2.30;;
69188;SDS011;56302;52.322;5.926;2022-07-22T08:55:04;6.10;;;2.20;;
69188;SDS011;56302;52.322;5.926;2022-07-22T08:57:31;7.40;;;1.80;;
69188;SDS011;56302;52.322;5.926;2022-07-22T08:59:58;6.70;;;1.98;;
69188;SDS011;56302;52.322;5.926;2022-07-22T09:02:25;5.80;;;1.90;;
69188;SDS011;56302;52.322;5.926;2022-07-22T09:04:58;5.65;;;1.80;;
69188;SDS011;56302;52.322;5.926;2022-07-22T09:07:29;5.88;;;1.67;;
69188;SDS011;56302;52.322;5.926;2022-07-22T09:09:57;5.05;;;1.60;;
69188;SDS011;56302;52.322;5.926;2022-07-22T09:12:25;7.70;;;1.48;;
69188;SDS011;56302;52.322;5.926;2022-07-22T09:14:54;6.60;;;2.00;;
69188;SDS011;56302;52.322;5.926;2022-07-22T09:17:22;7.07;;;1.80;;
69188;SDS011;56302;52.322;5.926;2022-07-22T09:19:53;5.55;;;2.10;;
69188;SDS011;56302;52.322;5.926;2022-07-22T09:22:37;10.85;;;1.98;;
69188;SDS011;56302;52.322;5.926;2022-07-22T09:25:17;4.38;;;1.60;;
69188;SDS011;56302;52.322;5.926;2022-07-22T09:27:50;7.20;;;1.47;;
69188;SDS011;56302;52.322;5.926;2022-07-22T09:30:18;8.63;;;1.95;;
69188;SDS011;56302;52.322;5.926;2022-07-22T09:32:48;4.15;;;1.90;;
69188;SDS011;56302;52.322;5.926;2022-07-22T09:35:15;7.25;;;1.55;;
69188;SDS011;56302;52.322;5.926;2022-07-22T09:37:48;7.10;;;1.88;;
69188;SDS011;56302;52.322;5.926;2022-07-22T09:40:15;5.30;;;1.70;;
69188;SDS011;56302;52.322;5.926;2022-07-22T09:42:44;4.82;;;1.65;;
69188;SDS011;56302;52.322;5.926;2022-07-22T09:45:31;4.90;;;1.70;;
69188;SDS011;56302;52.322;5.926;2022-07-22T09:47:58;5.70;;;1.60;;
69188;SDS011;56302;52.322;5.926;2022-07-22T09:50:27;4.90;;;1.50;;
69188;SDS011;56302;52.322;5.926;2022-07-22T09:52:55;8.83;;;1.60;;
69188;SDS011;56302;52.322;5.926;2022-07-22T09:55:23;4.72;;;1.30;;
69188;SDS011;56302;52.322;5.926;2022-07-22T09:57:50;5.57;;;1.70;;
69188;SDS011;56302;52.322;5.926;2022-07-22T10:00:21;8.35;;;1.50;;
69188;SDS011;56302;52.322;5.926;2022-07-22T10:02:49;7.40;;;1.88;;
69188;SDS011;56302;52.322;5.926;2022-07-22T10:05:28;4.57;;;1.30;;
69188;SDS011;56302;52.322;5.926;2022-07-22T10:07:56;8.30;;;1.90;;
69188;SDS011;56302;52.322;5.926;2022-07-22T10:10:24;5.13;;;1.30;;
69188;SDS011;56302;52.322;5.926;2022-07-22T10:12:52;6.93;;;1.40;;
69188;SDS011;56302;52.322;5.926;2022-07-22T10:15:19;7.10;;;1.70;;
69188;SDS011;56302;52.322;5.926;2022-07-22T10:17:47;6.07;;;1.40;;
69188;SDS011;56302;52.322;5.926;2022-07-22T10:20:18;4.80;;;1.83;;
69188;SDS011;56302;52.322;5.926;2022-07-22T10:22:52;9.13;;;1.73;;
69188;SDS011;56302;52.322;5.926;2022-07-22T10:25:20;5.00;;;1.33;;
69188;SDS011;56302;52.322;5.926;2022-07-22T10:30:21;7.37;;;1.27;;
69188;SDS011;56302;52.322;5.926;2022-07-22T10:33:24;7.88;;;1.60;;
69188;SDS011;56302;52.322;5.926;2022-07-22T10:36:00;7.68;;;2.00;;
69188;SDS011;56302;52.322;5.926;2022-07-22T10:38:28;6.43;;;1.35;;
69188;SDS011;56302;52.322;5.926;2022-07-22T10:40:59;7.70;;;1.95;;
69188;SDS011;56302;52.322;5.926;2022-07-22T10:43:32;5.37;;;1.30;;
69188;SDS011;56302;52.322;5.926;2022-07-22T10:46:11;9.27;;;1.60;;
69188;SDS011;56302;52.322;5.926;2022-07-22T10:56:07;7.28;;;1.50;;
69188;SDS011;56302;52.322;5.926;2022-07-22T10:58:41;6.70;;;1.58;;
69188;SDS011;56302;52.322;5.926;2022-07-22T11:01:09;6.50;;;1.50;;
69188;SDS011;56302;52.322;5.926;2022-07-22T11:03:38;6.18;;;1.27;;
69188;SDS011;56302;52.322;5.926;2022-07-22T11:06:13;3.28;;;1.30;;
69188;SDS011;56302;52.322;5.926;2022-07-22T11:08:48;6.75;;;1.83;;
69188;SDS011;56302;52.322;5.926;2022-07-22T11:11:15;5.28;;;1.38;;
69188;SDS011;56302;52.322;5.926;2022-07-22T11:13:42;7.50;;;1.30;;
69188;SDS011;56302;52.322;5.926;2022-07-22T11:16:25;4.30;;;1.33;;
69188;SDS011;56302;52.322;5.926;2022-07-22T11:18:52;3.55;;;1.58;;
69188;SDS011;56302;52.322;5.926;2022-07-22T11:21:23;7.50;;;1.40;;
69188;SDS011;56302;52.322;5.926;2022-07-22T11:23:51;7.80;;;1.90;;
69188;SDS011;56302;52.322;5.926;2022-07-22T11:26:19;10.67;;;1.80;;
69188;SDS011;56302;52.322;5.926;2022-07-22T11:28:58;5.53;;;1.45;;
69188;SDS011;56302;52.322;5.926;2022-07-22T11:31:25;6.32;;;1.83;;
69188;SDS011;56302;52.322;5.926;2022-07-22T11:33:50;4.47;;;1.40;;
69188;SDS011;56302;52.322;5.926;2022-07-22T11:36:16;6.17;;;1.80;;
69188;SDS011;56302;52.322;5.926;2022-07-22T11:38:42;9.30;;;1.40;;
69188;SDS011;56302;52.322;5.926;2022-07-22T11:41:12;7.95;;;1.85;;
69188;SDS011;56302;52.322;5.926;2022-07-22T11:46:10;5.55;;;1.25;;
69188;SDS011;56302;52.322;5.926;2022-07-22T11:48:36;7.82;;;1.60;;
69188;SDS011;56302;52.322;5.926;2022-07-22T11:51:02;4.87;;;1.67;;
69188;SDS011;56302;52.322;5.926;2022-07-22T11:53:29;8.80;;;1.83;;
69188;SDS011;56302;52.322;5.926;2022-07-22T11:56:01;6.82;;;1.48;;
69188;SDS011;56302;52.322;5.926;2022-07-22T12:01:12;6.10;;;1.80;;
69188;SDS011;56302;52.322;5.926;2022-07-22T12:03:39;5.28;;;1.50;;
69188;SDS011;56302;52.322;5.926;2022-07-22T12:06:09;4.32;;;1.58;;
69188;SDS011;56302;52.322;5.926;2022-07-22T12:08:40;6.15;;;1.38;;
69188;SDS011;56302;52.322;5.926;2022-07-22T12:11:12;4.10;;;1.50;;
69188;SDS011;56302;52.322;5.926;2022-07-22T12:13:42;4.70;;;1.45;;
69188;SDS011;56302;52.322;5.926;2022-07-22T12:16:23;7.22;;;1.60;;
69188;SDS011;56302;52.322;5.926;2022-07-22T12:18:53;5.75;;;1.98;;
69188;SDS011;56302;52.322;5.926;2022-07-22T12:21:23;7.40;;;1.58;;
69188;SDS011;56302;52.322;5.926;2022-07-22T12:23:52;3.90;;;1.33;;
69188;SDS011;56302;52.322;5.926;2022-07-22T12:26:19;4.22;;;1.45;;
69188;SDS011;56302;52.322;5.926;2022-07-22T12:31:45;9.10;;;2.38;;
69188;SDS011;56302;52.322;5.926;2022-07-22T12:34:12;7.38;;;1.73;;
69188;SDS011;56302;52.322;5.926;2022-07-22T12:36:38;5.17;;;1.40;;
69188;SDS011;56302;52.322;5.926;2022-07-22T12:39:12;6.20;;;1.30;;
69188;SDS011;56302;52.322;5.926;2022-07-22T12:41:46;6.60;;;1.23;;
69188;SDS011;56302;52.322;5.926;2022-07-22T12:44:17;6.85;;;1.60;;
69188;SDS011;56302;52.322;5.926;2022-07-22T12:46:45;6.45;;;1.85;;
69188;SDS011;56302;52.322;5.926;2022-07-22T12:49:11;6.60;;;1.57;;
69188;SDS011;56302;52.322;5.926;2022-07-22T12:51:37;5.32;;;1.33;;
69188;SDS011;56302;52.322;5.926;2022-07-22T12:54:02;4.40;;;1.33;;
69188;SDS011;56302;52.322;5.926;2022-07-22T12:56:28;5.17;;;1.40;;
69188;SDS011;56302;52.322;5.926;2022-07-22T12:58:53;6.35;;;1.60;;
69188;SDS011;56302;52.322;5.926;2022-07-22T13:01:19;7.07;;;1.90;;
69188;SDS011;56302;52.322;5.926;2022-07-22T13:03:44;5.20;;;1.33;;
69188;SDS011;56302;52.322;5.926;2022-07-22T13:06:10;5.72;;;1.73;;
69188;SDS011;56302;52.322;5.926;2022-07-22T13:08:36;5.10;;;1.80;;
69188;SDS011;56302;52.322;5.926;2022-07-22T13:11:01;4.10;;;1.37;;
69188;SDS011;56302;52.322;5.926;2022-07-22T13:13:27;5.05;;;1.40;;
69188;SDS011;56302;52.322;5.926;2022-07-22T13:15:54;8.32;;;1.60;;
69188;SDS011;56302;52.322;5.926;2022-07-22T13:18:19;7.43;;;1.40;;
69188;SDS011;56302;52.322;5.926;2022-07-22T13:20:45;4.67;;;1.30;;
69188;SDS011;56302;52.322;5.926;2022-07-22T13:23:12;4.88;;;1.73;;
69188;SDS011;56302;52.322;5.926;2022-07-22T13:25:37;5.07;;;1.60;;
69188;SDS011;56302;52.322;5.926;2022-07-22T13:28:03;4.25;;;1.40;;
69188;SDS011;56302;52.322;5.926;2022-07-22T13:30:28;6.33;;;1.40;;
69188;SDS011;56302;52.322;5.926;2022-07-22T13:32:54;5.70;;;1.53;;
69188;SDS011;56302;52.322;5.926;2022-07-22T13:35:20;7.18;;;1.60;;
69188;SDS011;56302;52.322;5.926;2022-07-22T13:37:46;5.13;;;1.33;;
69188;SDS011;56302;52.322;5.926;2022-07-22T13:40:12;5.95;;;1.70;;
69188;SDS011;56302;52.322;5.926;2022-07-22T13:42:38;3.03;;;1.40;;
69188;SDS011;56302;52.322;5.926;2022-07-22T13:45:04;5.00;;;1.23;;
69188;SDS011;56302;52.322;5.926;2022-07-22T13:47:30;3.87;;;1.10;;
69188;SDS011;56302;52.322;5.926;2022-07-22T13:49:56;6.03;;;1.60;;
69188;SDS011;56302;52.322;5.926;2022-07-22T13:52:22;8.60;;;1.93;;
69188;SDS011;56302;52.322;5.926;2022-07-22T13:54:48;4.75;;;1.80;;
69188;SDS011;56302;52.322;5.926;2022-07-22T13:57:14;7.95;;;1.80;;
69188;SDS011;56302;52.322;5.926;2022-07-22T13:59:40;5.28;;;1.73;;
69188;SDS011;56302;52.322;5.926;2022-07-22T14:02:06;5.17;;;1.80;;
69188;SDS011;56302;52.322;5.926;2022-07-22T14:04:32;5.63;;;2.10;;
69188;SDS011;56302;52.322;5.926;2022-07-22T14:06:58;5.13;;;1.73;;
69188;SDS011;56302;52.322;5.926;2022-07-22T14:09:24;5.07;;;2.03;;
69188;SDS011;56302;52.322;5.926;2022-07-22T14:11:49;6.33;;;1.57;;
69188;SDS011;56302;52.322;5.926;2022-07-22T14:14:15;5.57;;;1.53;;
69188;SDS011;56302;52.322;5.926;2022-07-22T14:16:40;5.88;;;1.65;;
69188;SDS011;56302;52.322;5.926;2022-07-22T14:19:07;3.50;;;1.53;;
69188;SDS011;56302;52.322;5.926;2022-07-22T14:21:35;6.43;;;1.42;;
69188;SDS011;56302;52.322;5.926;2022-07-22T14:24:01;6.15;;;1.75;;
69188;SDS011;56302;52.322;5.926;2022-07-22T14:26:28;7.20;;;1.90;;
69188;SDS011;56302;52.322;5.926;2022-07-22T14:28:54;5.60;;;1.63;;
69188;SDS011;56302;52.322;5.926;2022-07-22T14:31:20;4.63;;;1.80;;
69188;SDS011;56302;52.322;5.926;2022-07-22T14:33:46;4.37;;;1.73;;
69188;SDS011;56302;52.322;5.926;2022-07-22T14:36:13;6.30;;;1.70;;
69188;SDS011;56302;52.322;5.926;2022-07-22T14:38:39;5.05;;;1.55;;
69188;SDS011;56302;52.322;5.926;2022-07-22T14:41:05;5.17;;;1.70;;
69188;SDS011;56302;52.322;5.926;2022-07-22T14:43:32;5.60;;;1.75;;
69188;SDS011;56302;52.322;5.926;2022-07-22T14:45:58;3.83;;;1.20;;
69188;SDS011;56302;52.322;5.926;2022-07-22T14:48:24;4.07;;;1.30;;
69188;SDS011;56302;52.322;5.926;2022-07-22T14:50:50;6.23;;;1.30;;
69188;SDS011;56302;52.322;5.926;2022-07-22T14:53:15;5.50;;;1.60;;
69188;SDS011;56302;52.322;5.926;2022-07-22T14:55:42;8.07;;;1.42;;
69188;SDS011;56302;52.322;5.926;2022-07-22T14:58:07;4.82;;;1.45;;
69188;SDS011;56302;52.322;5.926;2022-07-22T15:00:33;4.27;;;1.27;;
69188;SDS011;56302;52.322;5.926;2022-07-22T15:02:58;6.13;;;1.73;;
69188;SDS011;56302;52.322;5.926;2022-07-22T15:05:24;5.70;;;1.43;;